Rolla, North Dakota
Current Conditions -  °F | °C
As of 9:55 PM on Tuesday 25 Nov 2014 (Local Time) from K06D Reporting Station
Overcast Overcast  
Wind Chill: -24°   Ceiling: 10000
Heat Index: -15°   Visibility: 10mi
Dew Point: -17°   Wind: 13mph
Humidity: 85%   Direction: 20°NNE
Pressure: 30.1"   Gusts: NA
Location:  48.86°N, 99.62°W
Report Text: K06D 260355Z AUTO 02011KT 10SM FEW002 SCT008 OVC100 M15/M17 A3010 RMK AO2
Loading
Personal Weather Stations






























Interactive Weather Map New forecast layout! Learn more

10-Day Weather Forecast

Advertisements
Track Severe Weather on mobile